GERMA EGAA-EGAA
Flight info
| Callsign | GERMA |
|---|---|
| Flight time | N/A |
| Altitude | 4000 |
| Route | IFR |
| Aircraft | DA40/L-V/N |
Departure
| Time | 2026-05-04 15:07 |
|---|---|
| Airport | Belfast International Airport (EGAA) |
Arrival
| Time | N/A |
|---|---|
| Airport | Belfast International Airport (EGAA) |
| Time | Latitude | Longitude | Altitude | Speed | Heading |
|---|---|---|---|---|---|
| 2026-05-04 14:24 | 54.66194 | -6.20846 | 266 ft | 0 kts | 315° |
| 2026-05-04 15:01 | 54.66187 | -6.20901 | 266 ft | 5 kts | 190° |
| 2026-05-04 15:01 | 54.66133 | -6.20850 | 266 ft | 5 kts | 88° |
| 2026-05-04 15:01 | 54.66162 | -6.20732 | 266 ft | 16 kts | 66° |
| 2026-05-04 15:01 | 54.66222 | -6.20505 | 266 ft | 22 kts | 65° |
| 2026-05-04 15:02 | 54.66242 | -6.20434 | 266 ft | 0 kts | 64° |
| 2026-05-04 15:02 | 54.66286 | -6.20266 | 266 ft | 21 kts | 68° |
| 2026-05-04 15:03 | 54.66341 | -6.20069 | 266 ft | 18 kts | 64° |
| 2026-05-04 15:03 | 54.66378 | -6.19925 | 266 ft | 16 kts | 62° |
| 2026-05-04 15:03 | 54.66377 | -6.19736 | 266 ft | 13 kts | 131° |
| 2026-05-04 15:03 | 54.66356 | -6.19706 | 266 ft | 0 kts | 150° |
| 2026-05-04 15:04 | 54.66336 | -6.19688 | 266 ft | 12 kts | 154° |
| 2026-05-04 15:05 | 54.66270 | -6.19662 | 266 ft | 5 kts | 213° |
| 2026-05-04 15:05 | 54.66256 | -6.19694 | 266 ft | 0 kts | 245° |
| 2026-05-04 15:05 | 54.66236 | -6.19771 | 266 ft | 23 kts | 244° |
| 2026-05-04 15:05 | 54.66112 | -6.20231 | 266 ft | 61 kts | 245° |
| 2026-05-04 15:06 | 54.65894 | -6.20976 | 376 ft | 71 kts | 245° |
| 2026-05-04 15:06 | 54.65638 | -6.21719 | 561 ft | 73 kts | 244° |
| 2026-05-04 15:06 | 54.65356 | -6.22476 | 730 ft | 81 kts | 236° |
| 2026-05-04 15:07 | 54.64393 | -6.22142 | 1265 ft | 87 kts | 112° |
| 2026-05-04 15:07 | 54.64291 | -6.21115 | 1511 ft | 90 kts | 90° |
| 2026-05-04 15:07 | 54.64240 | -6.20006 | 1699 ft | 96 kts | 95° |
| 2026-05-04 15:07 | 54.64163 | -6.18908 | 1977 ft | 91 kts | 90° |
| 2026-05-04 15:08 | 54.64124 | -6.17828 | 2223 ft | 91 kts | 89° |
| 2026-05-04 15:08 | 54.64100 | -6.16695 | 2417 ft | 97 kts | 87° |
| 2026-05-04 15:08 | 54.64087 | -6.15526 | 2602 ft | 97 kts | 87° |
| 2026-05-04 15:08 | 54.64065 | -6.14368 | 2822 ft | 95 kts | 86° |
| 2026-05-04 15:09 | 54.64083 | -6.13228 | 3021 ft | 96 kts | 83° |
| 2026-05-04 15:09 | 54.64092 | -6.12079 | 3206 ft | 97 kts | 89° |
| 2026-05-04 15:09 | 54.64093 | -6.10893 | 3386 ft | 100 kts | 85° |
| 2026-05-04 15:10 | 54.64077 | -6.08485 | 3799 ft | 100 kts | 87° |
| 2026-05-04 15:10 | 54.64085 | -6.07271 | 3990 ft | 102 kts | 90° |
| 2026-05-04 15:10 | 54.63949 | -6.04601 | 4125 ft | 122 kts | 93° |
| 2026-05-04 15:11 | 54.63875 | -6.03108 | 4064 ft | 129 kts | 94° |
| 2026-05-04 15:11 | 54.63796 | -6.01564 | 4010 ft | 129 kts | 94° |
| 2026-05-04 15:11 | 54.63691 | -6.00030 | 3968 ft | 127 kts | 96° |
| 2026-05-04 15:11 | 54.63539 | -5.98536 | 3969 ft | 124 kts | 102° |
| 2026-05-04 15:12 | 54.63352 | -5.97086 | 3951 ft | 124 kts | 102° |
| 2026-05-04 15:12 | 54.63174 | -5.95671 | 3959 ft | 122 kts | 102° |
| 2026-05-04 15:12 | 54.62981 | -5.94248 | 3937 ft | 121 kts | 103° |
| 2026-05-04 15:12 | 54.62784 | -5.92843 | 3926 ft | 119 kts | 103° |
| 2026-05-04 15:13 | 54.62590 | -5.91439 | 3915 ft | 120 kts | 103° |
| 2026-05-04 15:13 | 54.62402 | -5.90053 | 3937 ft | 118 kts | 103° |
| 2026-05-04 15:13 | 54.62231 | -5.88649 | 3885 ft | 120 kts | 101° |
| 2026-05-04 15:13 | 54.62077 | -5.87236 | 3907 ft | 119 kts | 98° |
| 2026-05-04 15:14 | 54.61954 | -5.85815 | 3898 ft | 119 kts | 98° |
| 2026-05-04 15:14 | 54.61662 | -5.84505 | 3877 ft | 118 kts | 136° |
| 2026-05-04 15:14 | 54.60947 | -5.83984 | 3907 ft | 109 kts | 187° |
| 2026-05-04 15:14 | 54.60323 | -5.84501 | 3920 ft | 99 kts | 236° |
| 2026-05-04 15:15 | 54.60013 | -5.85542 | 3915 ft | 96 kts | 249° |
| 2026-05-04 15:15 | 54.59588 | -5.86431 | 3910 ft | 102 kts | 222° |
| 2026-05-04 15:15 | 54.59064 | -5.87197 | 3956 ft | 97 kts | 231° |
| 2026-05-04 15:16 | 54.58068 | -5.88865 | 3998 ft | 100 kts | 227° |
| 2026-05-04 15:16 | 54.57552 | -5.89679 | 4011 ft | 101 kts | 227° |
| 2026-05-04 15:16 | 54.57148 | -5.91663 | 3999 ft | 98 kts | 305° |
| 2026-05-04 15:17 | 54.57763 | -5.92163 | 3974 ft | 106 kts | 357° |
| 2026-05-04 15:17 | 54.59008 | -5.90709 | 3988 ft | 111 kts | 36° |
| 2026-05-04 15:17 | 54.59621 | -5.89914 | 4013 ft | 110 kts | 31° |
| 2026-05-04 15:18 | 54.60249 | -5.89159 | 4026 ft | 110 kts | 30° |
| 2026-05-04 15:18 | 54.60881 | -5.88401 | 4000 ft | 111 kts | 30° |
| 2026-05-04 15:18 | 54.61506 | -5.87607 | 4015 ft | 111 kts | 32° |
| 2026-05-04 15:19 | 54.62647 | -5.85820 | 3989 ft | 117 kts | 61° |
| 2026-05-04 15:19 | 54.62686 | -5.84429 | 3985 ft | 120 kts | 111° |
| 2026-05-04 15:19 | 54.61400 | -5.83313 | 4005 ft | 107 kts | 205° |
| 2026-05-04 15:20 | 54.60813 | -5.84025 | 4014 ft | 104 kts | 226° |
| 2026-05-04 15:20 | 54.60274 | -5.84845 | 3986 ft | 104 kts | 226° |
| 2026-05-04 15:20 | 54.59729 | -5.85656 | 3973 ft | 104 kts | 227° |
| 2026-05-04 15:20 | 54.59191 | -5.86484 | 3961 ft | 103 kts | 226° |
| 2026-05-04 15:21 | 54.58647 | -5.87296 | 3952 ft | 104 kts | 225° |
| 2026-05-04 15:21 | 54.58125 | -5.88152 | 3951 ft | 102 kts | 243° |
| 2026-05-04 15:21 | 54.58615 | -5.90054 | 3970 ft | 102 kts | 338° |
| 2026-05-04 15:22 | 54.59323 | -5.89925 | 3968 ft | 109 kts | 22° |
| 2026-05-04 15:22 | 54.59933 | -5.89098 | 3963 ft | 112 kts | 35° |
| 2026-05-04 15:22 | 54.61258 | -5.87786 | 3963 ft | 107 kts | 15° |
| 2026-05-04 15:23 | 54.61971 | -5.87408 | 3962 ft | 107 kts | 5° |
| 2026-05-04 15:23 | 54.62564 | -5.86664 | 3971 ft | 114 kts | 60° |
| 2026-05-04 15:23 | 54.62548 | -5.85318 | 3951 ft | 118 kts | 118° |
| 2026-05-04 15:23 | 54.61945 | -5.84491 | 3949 ft | 111 kts | 173° |
| 2026-05-04 15:24 | 54.60717 | -5.85632 | 3927 ft | 102 kts | 227° |
| 2026-05-04 15:24 | 54.59647 | -5.87196 | 3945 ft | 100 kts | 225° |
| 2026-05-04 15:25 | 54.59117 | -5.87991 | 3933 ft | 100 kts | 237° |
| 2026-05-04 15:25 | 54.59016 | -5.89104 | 3932 ft | 96 kts | 290° |
| 2026-05-04 15:25 | 54.59511 | -5.89804 | 3973 ft | 99 kts | 343° |
| 2026-05-04 15:26 | 54.60799 | -5.88670 | 3929 ft | 112 kts | 31° |
| 2026-05-04 15:26 | 54.61411 | -5.87898 | 3964 ft | 109 kts | 31° |
| 2026-05-04 15:26 | 54.62513 | -5.86168 | 4023 ft | 114 kts | 74° |
| 2026-05-04 15:27 | 54.62364 | -5.84826 | 3990 ft | 116 kts | 127° |
| 2026-05-04 15:27 | 54.61035 | -5.84547 | 3977 ft | 104 kts | 227° |
| 2026-05-04 15:28 | 54.59973 | -5.86167 | 3987 ft | 102 kts | 226° |
| 2026-05-04 15:28 | 54.59446 | -5.86971 | 3985 ft | 102 kts | 227° |
| 2026-05-04 15:28 | 54.58268 | -5.88295 | 3989 ft | 108 kts | 194° |
| 2026-05-04 15:29 | 54.57641 | -5.88853 | 4045 ft | 98 kts | 237° |
| 2026-05-04 15:30 | 54.59410 | -5.89719 | 3986 ft | 110 kts | 24° |
| 2026-05-04 15:30 | 54.61452 | -5.87934 | 3958 ft | 113 kts | 30° |
| 2026-05-04 15:31 | 54.62552 | -5.86110 | 3978 ft | 117 kts | 75° |
| 2026-05-04 15:31 | 54.62397 | -5.84783 | 3992 ft | 116 kts | 128° |
| 2026-05-04 15:32 | 54.60531 | -5.85368 | 4007 ft | 102 kts | 225° |
| 2026-05-04 15:32 | 54.59439 | -5.86967 | 3982 ft | 101 kts | 226° |
| 2026-05-04 15:33 | 54.58256 | -5.88373 | 3978 ft | 103 kts | 229° |
| 2026-05-04 15:34 | 54.59184 | -5.90150 | 3976 ft | 111 kts | 27° |
| 2026-05-04 15:34 | 54.59821 | -5.89395 | 3982 ft | 110 kts | 30° |
| 2026-05-04 15:34 | 54.61124 | -5.88107 | 3993 ft | 109 kts | 20° |
| 2026-05-04 15:35 | 54.62425 | -5.86752 | 4011 ft | 112 kts | 41° |
| 2026-05-04 15:35 | 54.62904 | -5.85670 | 3981 ft | 114 kts | 49° |
| 2026-05-04 15:35 | 54.63368 | -5.84567 | 4014 ft | 112 kts | 49° |
| 2026-05-04 15:36 | 54.64302 | -5.82365 | 3982 ft | 115 kts | 50° |
| 2026-05-04 15:36 | 54.64603 | -5.81623 | 3996 ft | 114 kts | 50° |
| 2026-05-04 15:36 | 54.64975 | -5.80404 | 3976 ft | 120 kts | 78° |
| 2026-05-04 15:37 | 54.64777 | -5.79041 | 3975 ft | 120 kts | 128° |
| 2026-05-04 15:37 | 54.64104 | -5.78317 | 4006 ft | 112 kts | 177° |
| 2026-05-04 15:37 | 54.63418 | -5.78703 | 3989 ft | 103 kts | 230° |
| 2026-05-04 15:37 | 54.63126 | -5.79783 | 3964 ft | 99 kts | 258° |
| 2026-05-04 15:38 | 54.62952 | -5.80904 | 4006 ft | 96 kts | 259° |
| 2026-05-04 15:38 | 54.62935 | -5.81033 | 4007 ft | 96 kts | 260° |
| 2026-05-04 15:39 | 54.62875 | -5.81532 | 4003 ft | 98 kts | 262° |
| 2026-05-04 15:39 | 54.62581 | -5.83828 | 3996 ft | 98 kts | 261° |
| 2026-05-04 15:40 | 54.62452 | -5.84961 | 4031 ft | 96 kts | 261° |
| 2026-05-04 15:40 | 54.62369 | -5.85597 | 4020 ft | 98 kts | 259° |
| 2026-05-04 15:40 | 54.62291 | -5.86202 | 4003 ft | 99 kts | 261° |
| 2026-05-04 15:40 | 54.62143 | -5.87355 | 3995 ft | 98 kts | 261° |
| 2026-05-04 15:41 | 54.61864 | -5.88436 | 3983 ft | 104 kts | 233° |
| 2026-05-04 15:41 | 54.61315 | -5.89259 | 3974 ft | 104 kts | 227° |
| 2026-05-04 15:41 | 54.60782 | -5.90089 | 3985 ft | 103 kts | 227° |
| 2026-05-04 15:41 | 54.60263 | -5.90933 | 4018 ft | 102 kts | 227° |
| 2026-05-04 15:42 | 54.59728 | -5.91763 | 4025 ft | 104 kts | 226° |
| 2026-05-04 15:42 | 54.59167 | -5.92589 | 4006 ft | 107 kts | 226° |
| 2026-05-04 15:42 | 54.58607 | -5.93424 | 4011 ft | 107 kts | 218° |
| 2026-05-04 15:42 | 54.57847 | -5.93592 | 4009 ft | 116 kts | 168° |
| 2026-05-04 15:43 | 54.57233 | -5.92704 | 3972 ft | 122 kts | 117° |
| 2026-05-04 15:43 | 54.57152 | -5.91309 | 3994 ft | 118 kts | 71° |
| 2026-05-04 15:43 | 54.57617 | -5.90212 | 3970 ft | 111 kts | 27° |
| 2026-05-04 15:43 | 54.58326 | -5.89791 | 3980 ft | 106 kts | 4° |
| 2026-05-04 15:44 | 54.59051 | -5.89626 | 3994 ft | 105 kts | 357° |
| 2026-05-04 15:44 | 54.59779 | -5.89569 | 4020 ft | 106 kts | 5° |
| 2026-05-04 15:44 | 54.60478 | -5.89077 | 4029 ft | 111 kts | 28° |
| 2026-05-04 15:44 | 54.61109 | -5.88329 | 4026 ft | 111 kts | 28° |
| 2026-05-04 15:45 | 54.61749 | -5.87566 | 4027 ft | 113 kts | 28° |
| 2026-05-04 15:45 | 54.62385 | -5.86782 | 4042 ft | 113 kts | 40° |
| 2026-05-04 15:45 | 54.62645 | -5.85484 | 3985 ft | 124 kts | 95° |
| 2026-05-04 15:45 | 54.62224 | -5.84254 | 3989 ft | 119 kts | 148° |
| 2026-05-04 15:46 | 54.61465 | -5.83954 | 3991 ft | 111 kts | 195° |
| 2026-05-04 15:46 | 54.60832 | -5.84590 | 3983 ft | 105 kts | 226° |
| 2026-05-04 15:46 | 54.60279 | -5.85369 | 4002 ft | 102 kts | 226° |
| 2026-05-04 15:46 | 54.59744 | -5.86169 | 3992 ft | 103 kts | 227° |
| 2026-05-04 15:47 | 54.59202 | -5.86967 | 4006 ft | 103 kts | 224° |
| 2026-05-04 15:47 | 54.58647 | -5.87766 | 3996 ft | 104 kts | 226° |
| 2026-05-04 15:47 | 54.58320 | -5.88814 | 3979 ft | 99 kts | 273° |
| 2026-05-04 15:47 | 54.58645 | -5.89792 | 4003 ft | 99 kts | 324° |
| 2026-05-04 15:48 | 54.59336 | -5.89898 | 4001 ft | 107 kts | 9° |
| 2026-05-04 15:48 | 54.60028 | -5.89379 | 4012 ft | 110 kts | 21° |
| 2026-05-04 15:48 | 54.61344 | -5.88076 | 4032 ft | 110 kts | 28° |
| 2026-05-04 15:49 | 54.61978 | -5.87329 | 4053 ft | 111 kts | 30° |
| 2026-05-04 15:49 | 54.62607 | -5.86579 | 4027 ft | 113 kts | 29° |
| 2026-05-04 15:49 | 54.63297 | -5.85895 | 3993 ft | 111 kts | 11° |
| 2026-05-04 15:49 | 54.64034 | -5.85747 | 4018 ft | 106 kts | 359° |
| 2026-05-04 15:50 | 54.64769 | -5.85623 | 3990 ft | 107 kts | 3° |
| 2026-05-04 15:50 | 54.65512 | -5.85498 | 3987 ft | 106 kts | 358° |
| 2026-05-04 15:50 | 54.66246 | -5.85387 | 3971 ft | 106 kts | 360° |
| 2026-05-04 15:50 | 54.66976 | -5.85239 | 3957 ft | 106 kts | 2° |
| 2026-05-04 15:51 | 54.67675 | -5.85386 | 3954 ft | 99 kts | 327° |
| 2026-05-04 15:51 | 54.68078 | -5.86258 | 3985 ft | 93 kts | 285° |
| 2026-05-04 15:51 | 54.68016 | -5.87350 | 3996 ft | 96 kts | 247° |
| 2026-05-04 15:51 | 54.67494 | -5.88096 | 3989 ft | 104 kts | 203° |
| 2026-05-04 15:52 | 54.66750 | -5.88073 | 4008 ft | 109 kts | 176° |
| 2026-05-04 15:52 | 54.66000 | -5.87831 | 3997 ft | 111 kts | 174° |
| 2026-05-04 15:52 | 54.65241 | -5.87583 | 3996 ft | 111 kts | 176° |
| 2026-05-04 15:52 | 54.64475 | -5.87381 | 4001 ft | 111 kts | 177° |
| 2026-05-04 15:53 | 54.63708 | -5.87204 | 4003 ft | 111 kts | 177° |
| 2026-05-04 15:53 | 54.62945 | -5.87038 | 4033 ft | 110 kts | 181° |
| 2026-05-04 15:53 | 54.62192 | -5.87042 | 4040 ft | 108 kts | 192° |
| 2026-05-04 15:53 | 54.61448 | -5.87256 | 4065 ft | 107 kts | 195° |
| 2026-05-04 15:54 | 54.60703 | -5.87443 | 4050 ft | 109 kts | 193° |
| 2026-05-04 15:54 | 54.59955 | -5.87615 | 4059 ft | 109 kts | 193° |
| 2026-05-04 15:54 | 54.59200 | -5.87797 | 4030 ft | 110 kts | 195° |
| 2026-05-04 15:54 | 54.58452 | -5.88018 | 4030 ft | 109 kts | 195° |
| 2026-05-04 15:55 | 54.57724 | -5.88301 | 4074 ft | 103 kts | 210° |
| 2026-05-04 15:55 | 54.57318 | -5.89257 | 4001 ft | 102 kts | 265° |
| 2026-05-04 15:55 | 54.57548 | -5.90343 | 3996 ft | 100 kts | 316° |
| 2026-05-04 15:55 | 54.58215 | -5.90655 | 4005 ft | 105 kts | 1° |
| 2026-05-04 15:56 | 54.58927 | -5.90288 | 4007 ft | 108 kts | 17° |
| 2026-05-04 15:56 | 54.59612 | -5.89765 | 4017 ft | 108 kts | 20° |
| 2026-05-04 15:56 | 54.60267 | -5.89149 | 4029 ft | 110 kts | 27° |
| 2026-05-04 15:56 | 54.60884 | -5.88369 | 4011 ft | 112 kts | 35° |
| 2026-05-04 15:57 | 54.61494 | -5.87547 | 4023 ft | 110 kts | 27° |
| 2026-05-04 15:57 | 54.62130 | -5.86820 | 4030 ft | 110 kts | 30° |
| 2026-05-04 15:57 | 54.62546 | -5.85715 | 4039 ft | 116 kts | 77° |
| 2026-05-04 15:57 | 54.62377 | -5.84399 | 4085 ft | 114 kts | 127° |
| 2026-05-04 15:58 | 54.61714 | -5.83725 | 4089 ft | 110 kts | 181° |
| 2026-05-04 15:58 | 54.60957 | -5.83901 | 4083 ft | 111 kts | 195° |
| 2026-05-04 15:58 | 54.60216 | -5.84155 | 4096 ft | 111 kts | 199° |
| 2026-05-04 15:58 | 54.59555 | -5.84713 | 4095 ft | 105 kts | 226° |
| 2026-05-04 15:59 | 54.59004 | -5.85529 | 4065 ft | 105 kts | 226° |
| 2026-05-04 15:59 | 54.58442 | -5.86349 | 4033 ft | 105 kts | 226° |
| 2026-05-04 15:59 | 54.57783 | -5.86938 | 4028 ft | 109 kts | 198° |
| 2026-05-04 15:59 | 54.57014 | -5.87008 | 4019 ft | 111 kts | 186° |
| 2026-05-04 16:00 | 54.56246 | -5.87021 | 4028 ft | 110 kts | 184° |
| 2026-05-04 16:00 | 54.55474 | -5.86964 | 4018 ft | 111 kts | 181° |
| 2026-05-04 16:00 | 54.54694 | -5.86843 | 4011 ft | 113 kts | 182° |
| 2026-05-04 16:00 | 54.53909 | -5.86826 | 4004 ft | 112 kts | 184° |
| 2026-05-04 16:01 | 54.53152 | -5.86569 | 4004 ft | 119 kts | 152° |
| 2026-05-04 16:01 | 54.52675 | -5.85422 | 3986 ft | 123 kts | 103° |
| 2026-05-04 16:01 | 54.52670 | -5.84001 | 4103 ft | 112 kts | 83° |
| 2026-05-04 16:01 | 54.52758 | -5.82607 | 3987 ft | 121 kts | 78° |
| 2026-05-04 16:02 | 54.52981 | -5.81262 | 4042 ft | 115 kts | 69° |
| 2026-05-04 16:02 | 54.53251 | -5.79949 | 4023 ft | 116 kts | 61° |
| 2026-05-04 16:02 | 54.54522 | -5.78819 | 3956 ft | 103 kts | 342° |
| 2026-05-04 16:03 | 54.55136 | -5.79468 | 3845 ft | 98 kts | 321° |
| 2026-05-04 16:03 | 54.55676 | -5.80143 | 3492 ft | 95 kts | 322° |
| 2026-05-04 16:03 | 54.56232 | -5.80767 | 3121 ft | 95 kts | 326° |
| 2026-05-04 16:03 | 54.56798 | -5.81341 | 2718 ft | 96 kts | 328° |
| 2026-05-04 16:04 | 54.57387 | -5.81884 | 2357 ft | 93 kts | 330° |
| 2026-05-04 16:04 | 54.58603 | -5.82620 | 1716 ft | 94 kts | 352° |
| 2026-05-04 16:04 | 54.59327 | -5.82737 | 1661 ft | 111 kts | 350° |
| 2026-05-04 16:05 | 54.60123 | -5.82920 | 1606 ft | 120 kts | 349° |
| 2026-05-04 16:05 | 54.60963 | -5.83139 | 1590 ft | 123 kts | 350° |
| 2026-05-04 16:05 | 54.62503 | -5.83677 | 1396 ft | 94 kts | 318° |
| 2026-05-04 16:06 | 54.63003 | -5.84446 | 811 ft | 101 kts | 288° |
| 2026-05-04 16:06 | 54.62074 | -5.86924 | 15 ft | 79 kts | 212° |
| 2026-05-04 16:07 | 54.61706 | -5.87359 | 16 ft | 26 kts | 218° |
| 2026-05-04 16:07 | 54.61815 | -5.87612 | 15 ft | 5 kts | 30° |
| 2026-05-04 16:08 | 54.61823 | -5.87613 | 15 ft | 1 kts | 209° |